Time;durP1;ratioP1;P1;durP2;ratioP2;P2;SDS_P1;SDS_P2;PMS_P1;PMS_P2;Temp;Humidity;BMP_temperature;BMP_pressure;BME280_temperature;BME280_humidity;BME280_pressure;Samples;Min_cycle;Max_cycle;Signal;HPM_P1;HPM_P2
2023/05/19 00:01:14;;;;;;;6.18;3.72;;;10.00;99.90;;;;;;5031939;28;20030;-31
2023/05/19 00:03:51;;;;;;;10.03;3.50;;;10.10;99.90;;;;;;5034109;28;20037;-31
2023/05/19 00:06:20;;;;;;;6.55;3.80;;;10.10;99.90;;;;;;5031507;28;20346;-31
2023/05/19 00:08:48;;;;;;;6.47;4.03;;;10.10;99.90;;;;;;5030926;28;20045;-32
2023/05/19 00:11:14;;;;;;;5.35;3.08;;;10.10;99.90;;;;;;5031760;28;20047;-31
2023/05/19 00:13:40;;;;;;;8.63;3.80;;;10.10;99.90;;;;;;5027482;28;20416;-31
2023/05/19 00:16:06;;;;;;;5.60;3.38;;;10.00;99.90;;;;;;5033708;28;20131;-31
2023/05/19 00:18:32;;;;;;;8.80;4.40;;;10.00;99.90;;;;;;5029455;28;20038;-31
2023/05/19 00:20:57;;;;;;;8.27;3.97;;;10.00;99.90;;;;;;5035772;28;20038;-31
2023/05/19 00:23:23;;;;;;;5.75;3.58;;;10.00;99.90;;;;;;5031787;28;20045;-31
2023/05/19 00:25:49;;;;;;;7.60;3.67;;;9.90;99.90;;;;;;5031498;28;20042;-32
2023/05/19 00:28:14;;;;;;;7.03;3.67;;;9.90;99.90;;;;;;5031754;28;20030;-32
2023/05/19 00:30:40;;;;;;;5.68;3.20;;;9.90;99.90;;;;;;5028694;28;20482;-31
2023/05/19 00:33:06;;;;;;;7.20;4.07;;;9.90;99.90;;;;;;5032129;28;20108;-32
2023/05/19 00:35:31;;;;;;;11.00;4.20;;;9.90;99.90;;;;;;5029736;28;20040;-32
2023/05/19 00:37:57;;;;;;;5.22;3.40;;;9.90;99.90;;;;;;5028332;28;20053;-32
2023/05/19 00:40:25;;;;;;;3.90;3.10;;;9.90;99.90;;;;;;5031163;28;20028;-32
2023/05/19 00:42:51;;;;;;;;;;;9.80;99.90;;;;;;5032443;28;20029;-32
2023/05/19 00:45:16;;;;;;;8.45;3.35;;;9.90;99.90;;;;;;5030107;28;19955;-31
2023/05/19 00:47:42;;;;;;;6.10;3.10;;;9.90;99.90;;;;;;5032323;28;20119;-32
2023/05/19 00:50:08;;;;;;;8.57;3.42;;;9.90;99.90;;;;;;5029562;28;20046;-32
2023/05/19 00:52:34;;;;;;;6.22;2.88;;;9.80;99.90;;;;;;5031401;28;20033;-32
2023/05/19 00:54:59;;;;;;;8.00;3.42;;;9.80;99.90;;;;;;5035298;28;20021;-31
2023/05/19 00:57:26;;;;;;;6.65;3.80;;;9.90;99.90;;;;;;5033097;28;20029;-31
2023/05/19 00:59:51;;;;;;;6.30;3.30;;;9.80;99.90;;;;;;5031011;28;20029;-32
2023/05/19 01:02:17;;;;;;;8.50;3.30;;;9.80;99.90;;;;;;5017579;28;20050;-31
2023/05/19 01:04:44;;;;;;;5.90;3.63;;;9.90;99.90;;;;;;5027333;28;20513;-32
2023/05/19 01:07:11;;;;;;;5.03;3.25;;;9.90;99.90;;;;;;5024007;28;20390;-33
2023/05/19 01:09:36;;;;;;;7.90;3.50;;;9.80;99.90;;;;;;5019241;28;20057;-32
2023/05/19 01:12:02;;;;;;;9.23;3.72;;;9.90;99.90;;;;;;5017252;28;20017;-32
2023/05/19 01:14:29;;;;;;;7.03;4.32;;;9.90;99.90;;;;;;5019199;28;20037;-31
2023/05/19 01:17:08;;;;;;;5.28;2.90;;;9.90;99.90;;;;;;5021773;28;20029;-32
2023/05/19 01:19:52;;;;;;;6.07;3.30;;;9.80;99.90;;;;;;5019979;28;20029;-32
2023/05/19 01:22:21;;;;;;;5.93;3.35;;;9.80;99.90;;;;;;5014009;28;20029;-31
2023/05/19 01:25:23;;;;;;;6.63;3.40;;;9.80;99.90;;;;;;5016758;28;20041;-32
2023/05/19 01:28:07;;;;;;;9.80;3.40;;;9.80;99.90;;;;;;5016501;28;20030;-31
2023/05/19 01:30:38;;;;;;;5.85;3.65;;;9.80;99.90;;;;;;5018260;28;20029;-31
2023/05/19 01:33:07;;;;;;;8.18;3.85;;;9.70;99.90;;;;;;5020752;28;20049;-32
2023/05/19 01:35:35;;;;;;;4.93;3.67;;;9.60;99.90;;;;;;5019061;28;20495;-33
2023/05/19 01:38:04;;;;;;;7.53;3.40;;;9.60;99.90;;;;;;5019660;28;20018;-31
2023/05/19 01:40:31;;;;;;;6.03;3.63;;;9.60;99.90;;;;;;5023138;28;20081;-32
2023/05/19 01:42:59;;;;;;;6.07;3.58;;;9.60;99.90;;;;;;5018677;28;20478;-32
2023/05/19 01:45:27;;;;;;;6.75;3.33;;;9.50;99.90;;;;;;5019156;28;20073;-31
2023/05/19 01:47:55;;;;;;;6.03;3.47;;;9.50;99.90;;;;;;5016693;28;20032;-32
2023/05/19 01:50:21;;;;;;;6.72;3.45;;;9.40;99.90;;;;;;5014647;28;20068;-32
2023/05/19 01:52:47;;;;;;;7.28;3.53;;;9.40;99.90;;;;;;5019827;28;20034;-33
2023/05/19 01:55:15;;;;;;;7.10;3.28;;;9.30;99.90;;;;;;5016016;28;20249;-32
2023/05/19 01:58:18;;;;;;;7.07;4.57;;;9.20;99.90;;;;;;5020726;28;20470;-31
2023/05/19 02:00:55;;;;;;;5.28;3.40;;;9.20;99.90;;;;;;5002998;28;20562;-32
2023/05/19 02:03:28;;;;;;;8.27;3.53;;;9.20;99.90;;;;;;5011861;28;20022;-33
2023/05/19 02:06:00;;;;;;;8.73;3.45;;;9.20;99.90;;;;;;5015682;28;20076;-32
2023/05/19 02:08:46;;;;;;;5.13;3.50;;;9.10;99.90;;;;;;5017827;28;20044;-32
2023/05/19 02:11:44;;;;;;;5.45;3.38;;;9.00;99.90;;;;;;5014085;28;20048;-31
2023/05/19 02:14:19;;;;;;;6.00;2.83;;;9.00;99.90;;;;;;5010970;28;20040;-32
2023/05/19 02:16:47;;;;;;;8.82;3.15;;;8.90;99.90;;;;;;5018011;28;20026;-32
2023/05/19 02:19:39;;;;;;;5.05;3.33;;;8.90;99.90;;;;;;5018817;28;20025;-33
2023/05/19 02:22:05;;;;;;;6.80;3.50;;;8.80;99.90;;;;;;5014693;28;20036;-32
2023/05/19 02:24:31;;;;;;;6.22;3.05;;;8.80;99.90;;;;;;5020074;28;20022;-32
2023/05/19 02:26:56;;;;;;;6.63;3.03;;;8.70;99.90;;;;;;5019438;28;20033;-31
2023/05/19 02:29:22;;;;;;;8.18;3.28;;;8.70;99.90;;;;;;5019882;28;20538;-32
2023/05/19 02:31:47;;;;;;;6.00;3.35;;;8.60;99.90;;;;;;5014304;28;20117;-32
2023/05/19 02:34:13;;;;;;;9.80;3.20;;;8.60;99.90;;;;;;5018382;28;20140;-32
2023/05/19 02:36:41;;;;;;;4.70;3.58;;;8.60;99.90;;;;;;5016278;28;20025;-32
2023/05/19 02:39:08;;;;;;;5.55;3.35;;;8.50;99.90;;;;;;5013149;28;20036;-31
2023/05/19 02:41:34;;;;;;;5.50;3.00;;;8.50;99.90;;;;;;5014436;28;20515;-32
2023/05/19 02:43:59;;;;;;;4.97;3.33;;;8.40;99.90;;;;;;5016390;28;20046;-31
2023/05/19 02:46:25;;;;;;;3.58;2.92;;;8.40;99.90;;;;;;5015795;28;20395;-31
2023/05/19 02:48:51;;;;;;;5.93;2.97;;;8.40;99.90;;;;;;5013536;28;20017;-32
2023/05/19 02:51:17;;;;;;;5.47;3.15;;;8.40;99.90;;;;;;5016145;28;20795;-32
2023/05/19 02:53:42;;;;;;;4.53;3.05;;;8.40;99.90;;;;;;5018527;28;20098;-32
2023/05/19 02:56:08;;;;;;;6.65;3.40;;;8.30;99.90;;;;;;5017834;28;20486;-32
2023/05/19 02:58:33;;;;;;;6.00;3.20;;;8.30;99.90;;;;;;5016629;28;20037;-31
2023/05/19 03:00:59;;;;;;;6.00;3.20;;;8.30;99.90;;;;;;5015806;28;20426;-32
2023/05/19 03:03:25;;;;;;;8.80;3.03;;;8.30;99.90;;;;;;5017022;28;20032;-32
2023/05/19 03:05:52;;;;;;;5.50;3.58;;;8.30;99.90;;;;;;5015126;28;20018;-31
2023/05/19 03:08:18;;;;;;;7.40;4.30;;;8.40;99.90;;;;;;5020127;28;20033;-31
2023/05/19 03:10:45;;;;;;;6.97;3.42;;;8.40;99.90;;;;;;5014173;28;20037;-32
2023/05/19 03:13:11;;;;;;;5.72;3.50;;;8.40;99.90;;;;;;5017080;28;20337;-32
2023/05/19 03:15:37;;;;;;;7.10;3.20;;;8.40;99.90;;;;;;5015521;28;20247;-32
2023/05/19 03:18:03;;;;;;;5.60;3.20;;;8.40;99.90;;;;;;5013656;28;20030;-31
2023/05/19 03:20:29;;;;;;;6.05;3.47;;;8.50;99.90;;;;;;5017088;28;20045;-32
2023/05/19 03:22:55;;;;;;;4.15;3.30;;;8.50;99.90;;;;;;5016904;28;20033;-32
2023/05/19 03:25:21;;;;;;;8.38;3.78;;;8.50;99.90;;;;;;5014468;28;20080;-32
2023/05/19 03:27:46;;;;;;;8.10;3.20;;;8.40;99.90;;;;;;5015710;28;20069;-32
2023/05/19 03:30:12;;;;;;;6.72;3.13;;;8.40;99.90;;;;;;5019690;28;20056;-31
2023/05/19 03:32:38;;;;;;;6.55;3.38;;;8.40;99.90;;;;;;5013860;28;20038;-31
2023/05/19 03:35:04;;;;;;;4.20;2.90;;;8.50;99.90;;;;;;5017882;28;20467;-32
2023/05/19 03:37:31;;;;;;;5.30;3.28;;;8.50;99.90;;;;;;5013181;28;20106;-32
2023/05/19 03:39:57;;;;;;;8.23;3.50;;;8.50;99.90;;;;;;5019016;28;20026;-31
2023/05/19 03:42:23;;;;;;;4.20;3.42;;;8.50;99.90;;;;;;5016469;28;20120;-31
2023/05/19 03:44:48;;;;;;;5.60;3.53;;;8.60;99.90;;;;;;5017295;28;20160;-33
2023/05/19 03:47:14;;;;;;;6.28;3.20;;;8.60;99.90;;;;;;5016559;28;20036;-32
2023/05/19 03:49:40;;;;;;;6.40;3.67;;;8.50;99.90;;;;;;5014625;28;20446;-32
2023/05/19 03:52:05;;;;;;;5.93;3.58;;;8.50;99.90;;;;;;5012200;28;20153;-32
2023/05/19 03:54:31;;;;;;;4.15;3.20;;;8.50;99.90;;;;;;5013387;28;20475;-32
2023/05/19 03:56:57;;;;;;;6.45;3.20;;;8.60;99.90;;;;;;5015587;28;20033;-32
2023/05/19 03:59:23;;;;;;;7.00;3.35;;;8.60;99.90;;;;;;5016157;28;20030;-32
2023/05/19 04:01:49;;;;;;;6.30;3.95;;;8.60;99.90;;;;;;5019279;28;20107;-32
2023/05/19 04:04:15;;;;;;;4.93;3.70;;;8.60;99.90;;;;;;5022119;28;20068;-32
2023/05/19 04:06:40;;;;;;;7.85;3.17;;;8.60;99.90;;;;;;5018709;28;20103;-32
2023/05/19 04:09:13;;;;;;;5.07;3.80;;;8.60;99.90;;;;;;5013031;28;20101;-31
2023/05/19 04:11:39;;;;;;;9.10;3.70;;;8.60;99.90;;;;;;5013004;28;20037;-31
2023/05/19 04:14:05;;;;;;;5.00;3.05;;;8.70;99.90;;;;;;5014060;28;20576;-32
2023/05/19 04:16:31;;;;;;;8.57;3.10;;;8.70;99.90;;;;;;5031401;28;20059;-31
2023/05/19 04:18:57;;;;;;;5.07;3.33;;;8.80;99.90;;;;;;5016781;28;20025;-31
2023/05/19 04:21:23;;;;;;;5.72;3.72;;;8.80;99.90;;;;;;5014282;28;20063;-31
2023/05/19 04:23:48;;;;;;;8.20;3.60;;;8.90;99.90;;;;;;5013802;28;20033;-31
2023/05/19 04:26:14;;;;;;;7.03;3.90;;;9.00;99.90;;;;;;5020350;28;20034;-31
2023/05/19 04:28:43;;;;;;;7.63;3.88;;;9.00;99.90;;;;;;5023143;28;20030;-32
2023/05/19 04:31:11;;;;;;;6.15;4.00;;;9.00;99.90;;;;;;5013739;28;20042;-34
2023/05/19 04:33:38;;;;;;;6.25;4.00;;;8.90;99.90;;;;;;5014296;28;20037;-32
2023/05/19 04:36:07;;;;;;;6.78;3.65;;;8.90;99.90;;;;;;5017584;28;20026;-31
2023/05/19 04:38:33;;;;;;;7.25;4.22;;;8.90;99.90;;;;;;5015077;28;20056;-32
2023/05/19 04:41:00;;;;;;;6.28;3.22;;;8.90;99.90;;;;;;5018599;28;20053;-31
2023/05/19 04:43:27;;;;;;;6.57;3.67;;;9.00;99.90;;;;;;5016044;28;20438;-31
2023/05/19 04:45:53;;;;;;;9.02;3.65;;;9.00;99.90;;;;;;5019385;28;20018;-32
2023/05/19 04:48:20;;;;;;;6.47;3.45;;;9.10;99.90;;;;;;5015455;28;20034;-32
2023/05/19 04:50:47;;;;;;;7.03;3.65;;;9.20;99.90;;;;;;5020800;28;20046;-32
2023/05/19 04:53:13;;;;;;;5.60;3.72;;;9.20;99.90;;;;;;5020050;28;20106;-31
2023/05/19 04:55:39;;;;;;;4.13;3.40;;;9.20;99.90;;;;;;5018523;28;20026;-31
2023/05/19 04:58:05;;;;;;;7.90;3.47;;;9.30;99.90;;;;;;5016344;28;20030;-31
2023/05/19 05:00:31;;;;;;;6.90;3.40;;;9.30;99.90;;;;;;5018532;28;20065;-32
2023/05/19 05:02:57;;;;;;;6.95;4.20;;;9.30;99.90;;;;;;5016955;28;20100;-32
2023/05/19 05:05:23;;;;;;;4.88;3.70;;;9.40;99.90;;;;;;5016101;28;20677;-31
2023/05/19 05:07:49;;;;;;;6.00;3.58;;;9.40;99.90;;;;;;5021084;28;20103;-31
2023/05/19 05:10:14;;;;;;;12.95;4.25;;;9.50;99.90;;;;;;5019340;28;20483;-32
2023/05/19 05:12:40;;;;;;;10.15;4.00;;;9.50;99.90;;;;;;5019986;28;20025;-32
2023/05/19 05:15:07;;;;;;;5.40;3.28;;;9.60;99.90;;;;;;5018692;28;20522;-32
2023/05/19 05:17:34;;;;;;;8.25;3.88;;;9.70;99.90;;;;;;5019103;28;20030;-31
2023/05/19 05:20:00;;;;;;;6.25;4.20;;;9.70;99.90;;;;;;5017063;28;20650;-31
2023/05/19 05:22:26;;;;;;;5.15;3.72;;;9.70;99.90;;;;;;5021378;28;20574;-31
2023/05/19 05:24:52;;;;;;;6.53;3.70;;;9.80;99.90;;;;;;5016954;28;20084;-32
2023/05/19 05:27:18;;;;;;;6.88;3.85;;;9.90;99.90;;;;;;5021645;28;20087;-32
2023/05/19 05:29:43;;;;;;;5.13;3.58;;;9.80;99.90;;;;;;5018612;28;20053;-31
2023/05/19 05:32:09;;;;;;;5.22;3.63;;;9.90;99.90;;;;;;5016047;28;20486;-31
2023/05/19 05:34:36;;;;;;;7.75;4.20;;;9.90;99.90;;;;;;5020230;28;20053;-33
2023/05/19 05:37:02;;;;;;;7.30;4.37;;;9.90;99.90;;;;;;5019200;28;20104;-32
2023/05/19 05:39:28;;;;;;;9.73;4.30;;;10.00;99.90;;;;;;5016961;28;20367;-32
2023/05/19 05:41:53;;;;;;;9.60;3.78;;;10.00;99.90;;;;;;5020510;28;20096;-32
2023/05/19 05:44:19;;;;;;;8.07;3.95;;;10.00;99.90;;;;;;5016022;28;20026;-33
2023/05/19 05:46:45;;;;;;;7.72;4.10;;;10.10;99.90;;;;;;5017507;28;20037;-32
2023/05/19 05:49:14;;;;;;;7.63;3.83;;;10.10;99.90;;;;;;5014201;28;20494;-32
2023/05/19 05:51:39;;;;;;;5.47;4.00;;;10.10;99.90;;;;;;5016321;28;20360;-32
2023/05/19 05:54:06;;;;;;;6.57;4.20;;;10.20;99.90;;;;;;5017725;28;20030;-32
2023/05/19 05:56:36;;;;;;;8.13;4.10;;;10.20;99.90;;;;;;5018666;28;20056;-32
2023/05/19 05:59:02;;;;;;;9.85;4.47;;;10.30;99.90;;;;;;5014397;28;20030;-31
2023/05/19 06:01:29;;;;;;;9.57;4.50;;;10.40;99.90;;;;;;5011697;28;20041;-33
2023/05/19 06:03:55;;;;;;;5.90;4.10;;;10.50;99.90;;;;;;5019780;28;20068;-32
2023/05/19 06:06:20;;;;;;;10.15;4.60;;;10.50;99.90;;;;;;5012751;28;20364;-32
2023/05/19 06:08:46;;;;;;;7.20;4.18;;;10.60;99.90;;;;;;5019834;28;20109;-31
2023/05/19 06:11:11;;;;;;;5.93;4.00;;;10.50;99.90;;;;;;5015942;28;20064;-32
2023/05/19 06:13:38;;;;;;;8.43;4.68;;;10.60;99.90;;;;;;5019171;28;20029;-32
2023/05/19 06:16:04;;;;;;;6.57;4.97;;;10.60;99.90;;;;;;5020784;28;20037;-31
2023/05/19 06:18:30;;;;;;;6.95;4.20;;;10.60;99.90;;;;;;5014949;28;20022;-33
2023/05/19 06:20:56;;;;;;;12.50;5.15;;;10.60;99.90;;;;;;5018020;28;20056;-32
2023/05/19 06:23:22;;;;;;;5.40;4.07;;;10.60;99.90;;;;;;5019198;28;20029;-31
2023/05/19 06:25:48;;;;;;;8.52;5.07;;;10.60;99.90;;;;;;5013014;28;20041;-31
2023/05/19 06:28:13;;;;;;;7.60;4.95;;;10.70;99.90;;;;;;5015876;28;20454;-32
2023/05/19 06:30:39;;;;;;;9.77;5.10;;;10.70;99.90;;;;;;5021765;28;20029;-31
2023/05/19 06:33:04;;;;;;;8.00;5.10;;;10.80;99.90;;;;;;5016539;28;20064;-31
2023/05/19 06:35:30;;;;;;;8.07;5.75;;;11.00;99.90;;;;;;5015744;28;20025;-32
2023/05/19 06:37:56;;;;;;;9.20;5.28;;;11.20;99.90;;;;;;5018005;28;20024;-31
2023/05/19 06:40:22;;;;;;;9.85;5.43;;;11.30;99.90;;;;;;5015397;28;20092;-32
2023/05/19 06:42:48;;;;;;;9.48;4.85;;;11.40;99.90;;;;;;5020240;28;20033;-32
2023/05/19 06:45:13;;;;;;;11.02;4.97;;;11.50;99.90;;;;;;5015213;28;20056;-32
2023/05/19 06:47:43;;;;;;;6.80;4.90;;;11.50;99.90;;;;;;5019760;28;20430;-32
2023/05/19 06:50:09;;;;;;;9.65;5.30;;;11.50;99.90;;;;;;5019422;28;20063;-32
2023/05/19 06:52:35;;;;;;;6.32;4.68;;;11.60;99.90;;;;;;5026079;28;20475;-31
2023/05/19 06:55:01;;;;;;;8.13;4.45;;;11.80;99.90;;;;;;5016394;28;20071;-32
2023/05/19 06:57:26;;;;;;;8.45;4.70;;;11.90;99.90;;;;;;5017023;28;20479;-32
2023/05/19 06:59:52;;;;;;;7.03;4.65;;;11.90;99.90;;;;;;5015525;28;20037;-32
2023/05/19 07:02:17;;;;;;;10.50;5.70;;;11.90;99.90;;;;;;5018001;28;20045;-32
2023/05/19 07:04:43;;;;;;;10.85;4.95;;;12.00;99.90;;;;;;5020008;28;20025;-32
2023/05/19 07:07:09;;;;;;;10.20;5.20;;;12.00;99.90;;;;;;5016993;28;20040;-32
2023/05/19 07:09:35;;;;;;;7.30;4.75;;;12.00;99.90;;;;;;5016220;28;20033;-32
2023/05/19 07:12:00;;;;;;;5.75;4.38;;;11.90;99.90;;;;;;5018903;28;20040;-32
2023/05/19 07:14:26;;;;;;;6.97;4.90;;;11.90;99.90;;;;;;5016833;28;20026;-33
2023/05/19 07:16:52;;;;;;;8.48;5.13;;;11.90;99.90;;;;;;5021119;28;20602;-32
2023/05/19 07:19:18;;;;;;;6.28;4.75;;;11.90;99.90;;;;;;5013731;28;20022;-31
2023/05/19 07:21:45;;;;;;;7.35;4.63;;;11.90;99.90;;;;;;5012892;28;20025;-31
2023/05/19 07:24:10;;;;;;;7.32;4.93;;;11.80;99.90;;;;;;5015701;28;20033;-31
2023/05/19 07:26:36;;;;;;;6.80;5.00;;;11.90;99.90;;;;;;5016235;28;20022;-31
2023/05/19 07:29:02;;;;;;;9.88;5.07;;;11.90;99.90;;;;;;5018815;28;20022;-31
2023/05/19 07:31:27;;;;;;;7.90;5.03;;;12.00;99.90;;;;;;5016040;28;20042;-33
2023/05/19 07:33:53;;;;;;;9.73;4.30;;;11.90;99.90;;;;;;5036270;28;20072;-32
2023/05/19 07:36:19;;;;;;;8.15;4.97;;;11.90;99.90;;;;;;5016112;28;20683;-32
2023/05/19 07:38:47;;;;;;;7.35;4.75;;;12.00;99.90;;;;;;5021098;28;20446;-31
2023/05/19 07:41:13;;;;;;;8.00;5.03;;;12.10;99.90;;;;;;5016970;28;20049;-31
2023/05/19 07:43:38;;;;;;;6.97;4.75;;;12.10;99.90;;;;;;5014393;28;20058;-32
2023/05/19 07:46:04;;;;;;;9.00;5.38;;;12.10;99.90;;;;;;5012326;28;20566;-32
2023/05/19 07:48:30;;;;;;;6.95;5.03;;;12.00;99.90;;;;;;5013579;28;20041;-32
2023/05/19 07:50:56;;;;;;;9.00;5.03;;;12.00;99.90;;;;;;5022911;28;20776;-31
2023/05/19 07:53:22;;;;;;;6.63;4.97;;;12.00;99.90;;;;;;5017151;28;20030;-31
2023/05/19 07:55:48;;;;;;;7.53;4.90;;;12.00;99.90;;;;;;5012416;28;20034;-31
2023/05/19 07:58:14;;;;;;;6.47;4.90;;;11.90;99.90;;;;;;5015200;28;20038;-31
2023/05/19 08:00:41;;;;;;;7.28;4.90;;;11.90;99.90;;;;;;5012908;28;20100;-33
2023/05/19 08:03:08;;;;;;;7.25;5.40;;;11.90;99.90;;;;;;5013950;28;20091;-31
2023/05/19 08:05:34;;;;;;;9.82;4.63;;;11.80;99.90;;;;;;5017924;28;20038;-32
2023/05/19 08:08:00;;;;;;;7.85;4.88;;;11.70;99.90;;;;;;5018559;28;20026;-31
2023/05/19 08:10:26;;;;;;;7.40;4.93;;;11.70;99.90;;;;;;5014243;28;20037;-31
2023/05/19 08:12:51;;;;;;;7.55;5.00;;;11.60;99.90;;;;;;5019400;28;20471;-31
2023/05/19 08:15:18;;;;;;;7.28;5.03;;;11.60;99.90;;;;;;5015601;28;20030;-32
2023/05/19 08:17:43;;;;;;;6.20;4.03;;;11.50;99.90;;;;;;5021053;28;20018;-31
2023/05/19 08:20:11;;;;;;;6.72;4.15;;;11.50;99.90;;;;;;5016227;28;20079;-31
2023/05/19 08:22:36;;;;;;;6.72;4.30;;;11.40;99.90;;;;;;5020204;28;20029;-31
2023/05/19 08:25:03;;;;;;;6.75;4.25;;;11.50;99.90;;;;;;5020910;28;20025;-31
2023/05/19 08:27:29;;;;;;;6.03;3.85;;;11.50;99.90;;;;;;5023960;28;20045;-31
2023/05/19 08:29:56;;;;;;;6.28;3.75;;;11.60;99.90;;;;;;5020204;28;20041;-31
2023/05/19 08:32:21;;;;;;;7.97;4.90;;;11.50;99.90;;;;;;5012846;28;22203;-31
2023/05/19 08:34:47;;;;;;;5.88;4.10;;;11.50;99.90;;;;;;5020629;28;20068;-31
2023/05/19 08:37:13;;;;;;;6.63;4.32;;;11.50;99.90;;;;;;5016925;28;20032;-31
2023/05/19 08:39:38;;;;;;;7.22;4.50;;;11.50;99.90;;;;;;5020298;28;20104;-30
2023/05/19 08:42:06;;;;;;;5.90;4.93;;;11.60;99.90;;;;;;5017154;28;20033;-30
2023/05/19 08:44:32;;;;;;;11.20;4.40;;;11.70;99.90;;;;;;5019663;28;20103;-31
2023/05/19 08:47:01;;;;;;;8.82;5.22;;;11.70;99.90;;;;;;5017216;28;20038;-31
2023/05/19 08:49:31;;;;;;;6.25;4.15;;;11.60;99.90;;;;;;5017797;28;20123;-31
2023/05/19 08:52:10;;;;;;;10.75;4.55;;;11.60;99.90;;;;;;5019154;28;20029;-30
2023/05/19 08:55:08;;;;;;;5.18;4.05;;;11.60;99.90;;;;;;5017223;28;20018;-31
2023/05/19 08:57:35;;;;;;;8.32;5.78;;;11.80;99.90;;;;;;5002191;28;20033;-30
2023/05/19 09:00:07;;;;;;;9.38;4.90;;;11.90;99.90;;;;;;5017084;28;20108;-30
2023/05/19 09:02:32;;;;;;;6.55;3.95;;;12.10;99.90;;;;;;5013188;28;20041;-31
2023/05/19 09:04:58;;;;;;;7.45;4.32;;;12.20;99.90;;;;;;5020617;28;20041;-31
2023/05/19 09:07:25;;;;;;;6.57;4.82;;;12.20;99.90;;;;;;5026545;28;20037;-31
2023/05/19 09:09:50;;;;;;;7.07;5.15;;;12.20;99.90;;;;;;5015489;28;20565;-30
2023/05/19 09:12:16;;;;;;;6.85;4.15;;;12.30;99.90;;;;;;5017301;28;20030;-30
2023/05/19 09:14:42;;;;;;;7.18;4.30;;;12.30;99.90;;;;;;5017443;28;20394;-30
2023/05/19 09:17:08;;;;;;;6.60;4.35;;;12.30;99.90;;;;;;5020001;28;20490;-31
2023/05/19 09:19:34;;;;;;;5.57;3.90;;;12.20;99.90;;;;;;5020371;28;20080;-31
2023/05/19 09:22:04;;;;;;;7.70;4.25;;;12.20;99.90;;;;;;5020615;28;20049;-30
2023/05/19 09:24:30;;;;;;;7.43;4.13;;;12.20;99.90;;;;;;5018879;28;20026;-30
2023/05/19 09:26:56;;;;;;;6.72;4.47;;;12.20;99.90;;;;;;5023144;28;20479;-30
2023/05/19 09:29:22;;;;;;;6.70;4.55;;;12.30;99.90;;;;;;5016842;28;20088;-30
2023/05/19 09:31:49;;;;;;;7.35;4.78;;;12.30;99.90;;;;;;5019937;28;20034;-30
2023/05/19 09:34:15;;;;;;;4.88;4.13;;;12.40;99.90;;;;;;5019283;28;20033;-30
2023/05/19 09:36:43;;;;;;;5.35;4.18;;;12.50;99.90;;;;;;5020932;28;20044;-31
2023/05/19 09:39:13;;;;;;;6.10;4.03;;;12.50;99.90;;;;;;5017751;28;20040;-31
2023/05/19 09:41:39;;;;;;;8.13;4.60;;;12.40;99.90;;;;;;5024287;28;20025;-30
2023/05/19 09:44:06;;;;;;;6.45;3.90;;;12.30;99.90;;;;;;5020572;28;20479;-31
2023/05/19 09:46:34;;;;;;;4.75;4.30;;;12.30;99.90;;;;;;5023122;28;20025;-30
2023/05/19 09:49:07;;;;;;;;;;;12.30;99.90;;;;;;5016464;28;20045;-30
2023/05/19 09:51:35;;;;;;;4.30;3.30;;;12.40;99.90;;;;;;5019092;28;20386;-30
2023/05/19 09:54:01;;;;;;;5.85;3.85;;;12.50;99.90;;;;;;5017141;28;20018;-31
2023/05/19 09:56:33;;;;;;;5.60;4.15;;;12.50;99.90;;;;;;5018056;28;20120;-30
2023/05/19 09:58:58;;;;;;;4.97;3.90;;;12.70;99.90;;;;;;5017001;28;20067;-30
2023/05/19 10:01:25;;;;;;;6.22;4.00;;;12.70;99.90;;;;;;5017367;28;20038;-31
2023/05/19 10:03:52;;;;;;;6.20;4.00;;;12.80;99.90;;;;;;5019786;28;20427;-30
2023/05/19 10:06:19;;;;;;;5.68;4.32;;;12.70;99.90;;;;;;5019788;28;20048;-31
2023/05/19 10:08:46;;;;;;;5.03;3.33;;;12.60;99.90;;;;;;5014797;28;20052;-31
2023/05/19 10:11:13;;;;;;;5.20;3.40;;;12.50;99.90;;;;;;5017039;28;20075;-30
2023/05/19 10:13:40;;;;;;;4.95;3.78;;;12.60;99.90;;;;;;5015967;28;20022;-31
2023/05/19 10:16:07;;;;;;;4.65;3.38;;;12.50;99.90;;;;;;5014481;28;20068;-31
2023/05/19 10:18:33;;;;;;;5.20;3.65;;;12.40;99.90;;;;;;5020556;28;20076;-30
2023/05/19 10:21:00;;;;;;;4.15;3.38;;;12.50;99.90;;;;;;5018503;28;20116;-30
2023/05/19 10:23:25;;;;;;;5.10;3.72;;;12.60;99.90;;;;;;5017491;28;20071;-32
2023/05/19 10:25:55;;;;;;;5.05;3.65;;;12.70;99.90;;;;;;5020562;28;20523;-32
2023/05/19 10:28:25;;;;;;;5.00;3.95;;;12.70;99.90;;;;;;5021623;28;20033;-31
2023/05/19 10:30:55;;;;;;;4.75;3.78;;;12.80;99.90;;;;;;5017634;28;20399;-30
2023/05/19 10:33:34;;;;;;;4.28;3.55;;;12.80;99.90;;;;;;5014569;28;20120;-32
2023/05/19 10:36:31;;;;;;;6.57;4.07;;;12.90;99.90;;;;;;5014077;28;20034;-31
2023/05/19 10:39:06;;;;;;;4.88;3.47;;;12.90;99.90;;;;;;5011092;28;20053;-31
2023/05/19 10:41:54;;;;;;;6.10;3.75;;;12.80;99.90;;;;;;5016632;28;20084;-31
2023/05/19 10:44:41;;;;;;;5.40;4.32;;;12.70;99.90;;;;;;5032238;28;20502;-32
2023/05/19 10:47:07;;;;;;;5.10;3.40;;;12.60;99.90;;;;;;5017010;28;20033;-31
2023/05/19 10:49:36;;;;;;;5.35;3.65;;;12.70;99.90;;;;;;5020185;28;20179;-31
2023/05/19 10:52:02;;;;;;;3.92;3.35;;;12.80;99.90;;;;;;5022480;28;20164;-31
2023/05/19 10:54:46;;;;;;;4.75;3.92;;;12.90;99.90;;;;;;5018405;28;20120;-30
2023/05/19 10:57:15;;;;;;;4.18;3.78;;;12.90;99.90;;;;;;5019544;28;20029;-31
2023/05/19 10:59:43;;;;;;;5.28;3.95;;;12.90;99.90;;;;;;5018680;28;20486;-32
2023/05/19 11:02:09;;;;;;;5.22;4.35;;;12.90;99.90;;;;;;5019365;28;20087;-31
2023/05/19 11:04:38;;;;;;;5.25;3.70;;;12.90;99.90;;;;;;5016624;28;20022;-31
2023/05/19 11:07:04;;;;;;;6.57;3.90;;;12.80;99.90;;;;;;5018905;28;20029;-31
2023/05/19 11:09:32;;;;;;;7.03;3.97;;;12.70;99.90;;;;;;5019034;28;20021;-30
2023/05/19 11:12:02;;;;;;;4.22;3.42;;;12.60;99.90;;;;;;5018239;28;20037;-31
2023/05/19 11:14:28;;;;;;;5.15;3.60;;;12.40;99.90;;;;;;5014732;28;20037;-33
2023/05/19 11:16:58;;;;;;;5.13;3.80;;;12.30;99.90;;;;;;5018013;28;20032;-31
2023/05/19 11:19:31;;;;;;;4.53;3.30;;;12.40;99.90;;;;;;5013993;28;20116;-30
2023/05/19 11:22:11;;;;;;;6.07;3.58;;;12.30;99.90;;;;;;5016856;28;20064;-31
2023/05/19 11:24:48;;;;;;;4.63;3.47;;;12.20;99.90;;;;;;5014340;28;20057;-31
2023/05/19 11:27:27;;;;;;;4.00;3.50;;;12.20;99.90;;;;;;5020510;28;20116;-29
2023/05/19 11:29:58;;;;;;;4.43;3.83;;;12.20;99.90;;;;;;5016355;28;20030;-31
2023/05/19 11:32:37;;;;;;;4.57;3.78;;;12.30;99.90;;;;;;5018817;28;20108;-30
2023/05/19 11:35:04;;;;;;;4.88;3.58;;;12.20;99.90;;;;;;5015894;28;20029;-30
2023/05/19 11:37:33;;;;;;;4.95;3.78;;;12.20;99.90;;;;;;5016315;28;20029;-32
2023/05/19 11:40:07;;;;;;;7.70;4.45;;;12.30;99.90;;;;;;5017221;28;20025;-30
2023/05/19 11:42:34;;;;;;;7.63;4.57;;;12.50;99.90;;;;;;5018300;28;20108;-30
2023/05/19 11:45:01;;;;;;;4.05;3.38;;;12.50;99.90;;;;;;5018163;28;20053;-30
2023/05/19 11:47:27;;;;;;;4.85;4.07;;;12.50;99.90;;;;;;5013782;28;20072;-30
2023/05/19 11:49:55;;;;;;;4.53;3.72;;;12.50;99.90;;;;;;5020334;28;20050;-31
2023/05/19 11:52:26;;;;;;;4.07;3.67;;;12.50;99.90;;;;;;5018435;28;20115;-31
2023/05/19 11:54:51;;;;;;;4.78;3.85;;;12.40;99.90;;;;;;5014986;28;20356;-31
2023/05/19 11:57:17;;;;;;;5.55;3.88;;;12.40;99.90;;;;;;5017065;28;20037;-31
2023/05/19 11:59:44;;;;;;;9.02;4.18;;;12.50;99.90;;;;;;5016629;28;20018;-31
2023/05/19 12:02:17;;;;;;;5.35;3.83;;;12.50;99.90;;;;;;5018302;28;20045;-31
2023/05/19 12:04:43;;;;;;;5.18;3.90;;;12.60;99.90;;;;;;5016149;28;20076;-30
2023/05/19 12:07:11;;;;;;;7.93;4.07;;;12.50;99.90;;;;;;5022311;28;20049;-31
2023/05/19 12:09:36;;;;;;;3.70;3.40;;;12.60;99.90;;;;;;5014837;28;20030;-31
2023/05/19 12:12:03;;;;;;;6.85;3.88;;;12.60;99.90;;;;;;5011332;28;20103;-31
2023/05/19 12:14:30;;;;;;;4.35;3.90;;;12.50;99.90;;;;;;5018251;28;20072;-31
2023/05/19 12:16:55;;;;;;;5.68;4.00;;;12.50;99.90;;;;;;5015084;28;20526;-32
2023/05/19 12:19:24;;;;;;;8.32;4.22;;;12.50;99.90;;;;;;5016348;28;20097;-31
2023/05/19 12:21:51;;;;;;;8.30;4.30;;;12.50;99.90;;;;;;5013504;28;20048;-31
2023/05/19 12:24:18;;;;;;;5.90;3.75;;;12.50;99.90;;;;;;5014083;28;20112;-32
2023/05/19 12:26:44;;;;;;;6.45;4.20;;;12.50;99.90;;;;;;5013729;28;20295;-31
2023/05/19 12:29:12;;;;;;;6.35;3.95;;;12.60;99.90;;;;;;5016219;28;20467;-32
2023/05/19 12:31:38;;;;;;;7.40;4.32;;;12.60;99.90;;;;;;5017014;28;20116;-30
2023/05/19 12:34:04;;;;;;;6.63;4.18;;;12.60;99.90;;;;;;5012804;28;20108;-31
2023/05/19 12:36:31;;;;;;;6.30;4.28;;;12.70;99.90;;;;;;5014206;28;20033;-31
2023/05/19 12:38:57;;;;;;;4.70;4.07;;;12.70;99.90;;;;;;5019937;28;20041;-31
2023/05/19 12:41:26;;;;;;;8.00;4.65;;;12.70;99.90;;;;;;5016537;28;20026;-31
2023/05/19 12:43:53;;;;;;;5.55;3.88;;;12.60;99.90;;;;;;5014736;28;20026;-33
2023/05/19 12:46:19;;;;;;;8.85;4.18;;;12.60;99.90;;;;;;5012583;28;20029;-31
2023/05/19 12:48:45;;;;;;;7.18;4.18;;;12.70;99.90;;;;;;5022597;28;20028;-31
2023/05/19 12:51:20;;;;;;;4.93;3.58;;;12.80;99.90;;;;;;5027352;22;20096;-71
2023/05/19 12:53:46;;;;;;;6.95;4.00;;;12.70;99.90;;;;;;4960480;28;20048;-71